Time;durP1;ratioP1;P1;durP2;ratioP2;P2;SDS_P1;SDS_P2;PMS_P1;PMS_P2;Temp;Humidity;BMP_temperature;BMP_pressure;BME280_temperature;BME280_humidity;BME280_pressure;Samples;Min_cycle;Max_cycle;Signal;HPM_P1;HPM_P2
2023/12/08 00:00:48;;;;;;;94.40;40.90;;;;;;;0.55;100.00;100948.38;105020;1260;83710;-54
2023/12/08 00:03:31;;;;;;;93.50;40.80;;;;;;;0.57;100.00;100950.63;105029;1262;72049;-56
2023/12/08 00:05:59;;;;;;;104.80;43.80;;;;;;;0.57;100.00;100948.22;105058;1257;69215;-54
2023/12/08 00:08:27;;;;;;;87.20;38.50;;;;;;;0.56;100.00;100948.56;105055;1264;69203;-52
2023/12/08 00:10:55;;;;;;;98.70;40.90;;;;;;;0.55;100.00;100945.10;105052;1267;73615;-55
2023/12/08 00:13:24;;;;;;;103.00;43.40;;;;;;;0.52;100.00;100950.08;104996;1264;81801;-54
2023/12/08 00:15:52;;;;;;;92.30;40.80;;;;;;;0.48;100.00;100952.23;104999;1262;73117;-55
2023/12/08 00:18:21;;;;;;;92.00;40.30;;;;;;;0.44;100.00;100953.73;105051;1264;69171;-56
2023/12/08 00:20:49;;;;;;;82.70;35.40;;;;;;;0.44;100.00;100955.27;105059;1271;69184;-54
2023/12/08 00:23:18;;;;;;;93.50;39.40;;;;;;;0.43;100.00;100955.61;105118;1261;74322;-55
2023/12/08 00:25:46;;;;;;;85.70;36.60;;;;;;;0.41;100.00;100956.95;105039;1261;81716;-56
2023/12/08 00:28:15;;;;;;;82.50;36.00;;;;;;;0.37;100.00;100955.36;105086;1262;71611;-54
2023/12/08 00:30:43;;;;;;;83.10;35.90;;;;;;;0.35;100.00;100955.33;105129;1263;69154;-51
2023/12/08 00:33:11;;;;;;;80.00;35.90;;;;;;;0.34;100.00;100956.35;105059;1262;69792;-55
2023/12/08 00:35:39;;;;;;;81.80;35.90;;;;;;;0.31;100.00;100953.05;105021;1261;72747;-55
2023/12/08 00:38:09;;;;;;;81.20;37.90;;;;;;;0.30;100.00;100953.38;105002;1262;82064;-55
2023/12/08 00:40:37;;;;;;;85.30;37.30;;;;;;;0.28;100.00;100957.63;105066;1263;71730;-54
2023/12/08 00:43:05;;;;;;;97.30;39.40;;;;;;;0.28;100.00;100960.02;105019;1263;69109;-55
2023/12/08 00:45:33;;;;;;;100.20;41.00;;;;;;;0.27;100.00;100960.37;105013;1262;69202;-55
2023/12/08 00:48:02;;;;;;;91.50;37.60;;;;;;;0.25;100.00;100956.73;105086;1263;74006;-56
2023/12/08 00:50:30;;;;;;;85.30;37.90;;;;;;;0.25;100.00;100960.52;105058;1263;81424;-55
2023/12/08 00:52:58;;;;;;;97.00;37.20;;;;;;;0.24;100.00;100960.84;105002;1263;71991;-56
2023/12/08 00:55:26;;;;;;;98.40;40.60;;;;;;;0.24;100.00;100959.98;105015;1261;69208;-55
2023/12/08 00:57:55;;;;;;;92.80;40.50;;;;;;;0.26;100.00;100955.89;105025;1262;69134;-55
2023/12/08 01:00:23;;;;;;;100.90;41.50;;;;;;;0.25;100.00;100951.75;105058;1263;71407;-53
2023/12/08 01:02:52;;;;;;;97.00;40.10;;;;;;;0.22;100.00;100944.84;105071;1262;81859;-56
2023/12/08 01:05:20;;;;;;;98.80;40.90;;;;;;;0.21;100.00;100942.08;105088;1260;72204;-58
2023/12/08 01:07:48;;;;;;;97.70;40.30;;;;;;;0.22;100.00;100947.41;105036;1261;69183;-58
2023/12/08 01:10:16;;;;;;;94.20;40.50;;;;;;;0.21;100.00;100948.43;105037;1258;69189;-58
2023/12/08 01:12:44;;;;;;;91.40;37.40;;;;;;;0.22;100.00;100949.83;105024;1264;73314;-58
2023/12/08 01:15:13;;;;;;;93.90;38.40;;;;;;;0.23;100.00;100945.55;105017;1264;81914;-58
2023/12/08 01:17:41;;;;;;;89.80;37.90;;;;;;;0.24;100.00;100947.79;105082;1260;71924;-58
2023/12/08 01:20:10;;;;;;;84.00;36.20;;;;;;;0.25;100.00;100953.14;105003;1261;69203;-58
2023/12/08 01:22:38;;;;;;;85.60;34.60;;;;;;;0.24;100.00;100955.17;105117;1264;69256;-58
2023/12/08 01:25:07;;;;;;;79.40;35.50;;;;;;;0.22;100.00;100953.44;105046;1263;71491;-58
2023/12/08 01:27:35;;;;;;;84.80;36.30;;;;;;;0.23;100.00;100947.77;105094;1264;82816;-58
2023/12/08 01:30:05;;;;;;;74.30;35.60;;;;;;;0.24;100.00;100945.20;105067;1261;71544;-58
2023/12/08 01:32:33;;;;;;;84.60;35.80;;;;;;;0.24;100.00;100942.96;105042;1263;69214;-58
2023/12/08 01:35:01;;;;;;;72.30;33.80;;;;;;;0.23;100.00;100938.67;105023;1257;69203;-58
2023/12/08 01:37:30;;;;;;;67.40;31.90;;;;;;;0.22;100.00;100929.02;105131;1261;71421;-58
2023/12/08 01:39:58;;;;;;;66.10;31.30;;;;;;;0.22;100.00;100925.92;105043;1261;83066;-58
2023/12/08 01:42:26;;;;;;;76.40;32.90;;;;;;;0.19;100.00;100921.95;105048;1258;70790;-58
2023/12/08 01:44:54;;;;;;;71.60;33.60;;;;;;;0.16;100.00;100922.08;105024;1259;69215;-58
2023/12/08 01:47:22;;;;;;;67.30;32.00;;;;;;;0.14;100.00;100920.52;105021;1264;69225;-57
2023/12/08 01:49:51;;;;;;;63.60;31.50;;;;;;;0.14;100.00;100918.77;105030;1261;72960;-58
2023/12/08 01:52:23;;;;;;;68.20;31.70;;;;;;;0.13;100.00;100918.93;105047;1264;81455;-58
2023/12/08 01:54:55;;;;;;;74.40;32.70;;;;;;;0.13;100.00;100912.58;105035;1264;73404;-57
2023/12/08 01:57:23;;;;;;;71.60;31.30;;;;;;;0.12;100.00;100907.41;105001;1264;69759;-58
2023/12/08 01:59:52;;;;;;;64.10;29.00;;;;;;;0.11;100.00;100902.25;105118;1260;69189;-58
2023/12/08 02:02:22;;;;;;;73.60;32.30;;;;;;;0.12;100.00;100903.97;105029;1261;72772;-59
2023/12/08 02:04:54;;;;;;;75.70;34.10;;;;;;;0.11;100.00;100901.73;105176;1264;81152;-58
2023/12/08 02:07:22;;;;;;;73.10;32.10;;;;;;;0.11;100.00;100897.93;105063;1261;71604;-58
2023/12/08 02:09:50;;;;;;;71.80;31.60;;;;;;;0.10;100.00;100897.58;105173;1261;69202;-58
2023/12/08 02:12:19;;;;;;;73.20;31.20;;;;;;;0.10;100.00;100899.29;105077;1264;69305;-58
2023/12/08 02:14:51;;;;;;;68.10;29.50;;;;;;;0.09;100.00;100895.17;105094;1261;72848;-58
2023/12/08 02:17:25;;;;;;;71.60;31.20;;;;;;;0.09;100.00;100892.23;105106;1264;80129;-58
2023/12/08 02:19:54;;;;;;;65.90;29.90;;;;;;;0.07;100.00;100885.86;105086;1261;70355;-58
2023/12/08 02:22:23;;;;;;;63.30;29.60;;;;;;;0.06;100.00;100889.30;105036;1261;69831;-58
2023/12/08 02:24:52;;;;;;;73.10;30.60;;;;;;;0.06;100.00;100889.30;105126;1261;69227;-57
2023/12/08 02:27:20;;;;;;;72.60;32.20;;;;;;;0.06;100.00;100881.73;105059;1260;72231;-58
2023/12/08 02:29:48;;;;;;;74.70;32.60;;;;;;;0.04;100.00;100878.42;105095;1263;81603;-58
2023/12/08 02:32:31;;;;;;;75.60;31.50;;;;;;;0.02;100.00;100872.55;105051;1264;72335;-57
2023/12/08 02:35:02;;;;;;;74.80;30.20;;;;;;;-0.01;100.00;100864.97;105098;1264;69201;-57
2023/12/08 02:37:32;;;;;;;68.30;30.30;;;;;;;-0.03;100.00;100857.89;105096;1262;69122;-58
2023/12/08 02:40:02;;;;;;;69.80;29.90;;;;;;;-0.06;100.00;100846.69;105112;1260;72533;-58
2023/12/08 02:42:30;;;;;;;65.20;31.20;;;;;;;-0.10;100.00;100841.81;105108;1262;81197;-58
2023/12/08 02:44:58;;;;;;;63.20;28.60;;;;;;;-0.12;100.00;100835.95;105039;1261;70173;-58
2023/12/08 02:47:27;;;;;;;64.60;28.70;;;;;;;-0.14;100.00;100833.35;105041;1262;69138;-58
2023/12/08 02:49:55;;;;;;;64.50;28.60;;;;;;;-0.19;100.00;100825.89;105054;1264;69186;-57
2023/12/08 02:52:23;;;;;;;64.20;27.10;;;;;;;-0.24;100.00;100820.34;105074;1260;71407;-58
2023/12/08 02:54:52;;;;;;;62.10;28.40;;;;;;;-0.28;100.00;100826.13;105090;1263;82823;-59
2023/12/08 02:57:20;;;;;;;61.10;27.20;;;;;;;-0.31;100.00;100823.67;105137;1261;71646;-58
2023/12/08 02:59:48;;;;;;;56.10;25.40;;;;;;;-0.35;100.00;100823.96;105030;1261;69110;-58
2023/12/08 03:02:16;;;;;;;61.70;28.30;;;;;;;-0.37;100.00;100823.25;105033;1262;69193;-58
2023/12/08 03:04:44;;;;;;;58.80;27.40;;;;;;;-0.40;100.00;100822.69;105026;1261;72798;-58
2023/12/08 03:07:12;;;;;;;55.50;27.30;;;;;;;-0.41;100.00;100831.44;105057;1262;81773;-58
2023/12/08 03:09:41;;;;;;;61.80;27.00;;;;;;;-0.40;100.00;100831.09;105101;1262;72338;-58
2023/12/08 03:12:09;;;;;;;51.80;25.90;;;;;;;-0.38;100.00;100833.71;105089;1260;69134;-58
2023/12/08 03:14:38;;;;;;;56.00;25.60;;;;;;;-0.40;100.00;100831.27;105022;1262;69128;-58
2023/12/08 03:17:07;;;;;;;51.60;26.10;;;;;;;-0.41;100.00;100831.27;105011;1260;72812;-57
2023/12/08 03:19:35;;;;;;;56.20;26.20;;;;;;;-0.41;100.00;100831.10;105108;1262;81517;-58
2023/12/08 03:22:03;;;;;;;59.80;27.10;;;;;;;-0.42;100.00;100830.21;105051;1262;72540;-58
2023/12/08 03:24:31;;;;;;;58.70;27.50;;;;;;;-0.43;100.00;100831.91;105035;1261;69129;-56
2023/12/08 03:26:59;;;;;;;56.90;26.10;;;;;;;-0.45;100.00;100831.20;105069;1262;69222;-58
2023/12/08 03:29:28;;;;;;;54.80;25.50;;;;;;;-0.45;100.00;100830.33;105122;1260;72801;-58
2023/12/08 03:31:56;;;;;;;53.10;27.10;;;;;;;-0.43;100.00;100833.63;105133;1259;81404;-58
2023/12/08 03:34:24;;;;;;;49.10;24.90;;;;;;;-0.43;100.00;100832.77;105031;1264;70167;-58
2023/12/08 03:36:52;;;;;;;51.40;26.10;;;;;;;-0.44;100.00;100833.11;105042;1258;69112;-58
2023/12/08 03:39:21;;;;;;;55.90;25.90;;;;;;;-0.43;100.00;100833.80;105068;1262;69218;-57
2023/12/08 03:41:49;;;;;;;56.40;26.10;;;;;;;-0.43;100.00;100830.37;105062;1262;72428;-58
2023/12/08 03:44:17;;;;;;;53.30;27.40;;;;;;;-0.44;100.00;100828.83;105084;1262;81572;-57
2023/12/08 03:46:45;;;;;;;57.60;27.90;;;;;;;-0.45;100.00;100832.06;105022;1260;71705;-58
2023/12/08 03:49:13;;;;;;;60.70;29.30;;;;;;;-0.43;100.00;100826.23;105124;1260;69190;-58
2023/12/08 03:51:42;;;;;;;66.50;30.30;;;;;;;-0.46;100.00;100825.34;105030;1262;69221;-58
2023/12/08 03:54:10;;;;;;;59.80;28.40;;;;;;;-0.47;100.00;100820.86;105036;1259;72886;-58
2023/12/08 03:56:38;;;;;;;63.10;29.90;;;;;;;-0.49;100.00;100819.30;105043;1262;81801;-58
2023/12/08 03:59:06;;;;;;;67.30;32.00;;;;;;;-0.52;100.00;100813.75;105079;1259;71901;-57
2023/12/08 04:01:35;;;;;;;57.40;29.40;;;;;;;-0.54;100.00;100807.89;105084;1262;69172;-58
2023/12/08 04:04:03;;;;;;;60.50;30.80;;;;;;;-0.55;100.00;100805.98;105097;1261;69176;-58
2023/12/08 04:06:31;;;;;;;62.80;29.40;;;;;;;-0.58;100.00;100807.49;105107;1261;74441;-57
2023/12/08 04:09:00;;;;;;;67.70;31.30;;;;;;;-0.61;100.00;100805.90;105129;1262;81802;-58
2023/12/08 04:11:28;;;;;;;57.80;29.60;;;;;;;-0.66;100.00;100801.02;105034;1260;73132;-58
2023/12/08 04:13:56;;;;;;;60.90;30.60;;;;;;;-0.70;100.00;100803.55;105038;1259;69130;-56
2023/12/08 04:16:24;;;;;;;57.20;28.70;;;;;;;-0.74;100.00;100801.60;105043;1260;69165;-59
2023/12/08 04:18:52;;;;;;;58.40;29.10;;;;;;;-0.77;100.00;100799.98;105084;1260;72899;-58
2023/12/08 04:21:21;;;;;;;58.20;28.40;;;;;;;-0.80;100.00;100796.16;105061;1260;81697;-58
2023/12/08 04:23:49;;;;;;;63.90;30.10;;;;;;;-0.83;100.00;100793.38;105058;1261;71565;-58
2023/12/08 04:26:20;;;;;;;60.80;30.60;;;;;;;-0.86;100.00;100788.88;105069;1262;69149;-59
2023/12/08 04:28:49;;;;;;;57.30;29.60;;;;;;;-0.90;100.00;100783.32;105054;1262;69059;-58
2023/12/08 04:31:17;;;;;;;59.60;30.80;;;;;;;-0.95;100.00;100778.79;105049;1261;75194;-58
2023/12/08 04:33:46;;;;;;;60.90;29.70;;;;;;;-0.99;100.00;100775.46;105112;1263;81385;-58
2023/12/08 04:36:15;;;;;;;60.30;29.80;;;;;;;-1.03;100.00;100771.27;105090;1262;70947;-55
2023/12/08 04:38:43;;;;;;;61.40;28.90;;;;;;;-1.07;100.00;100772.58;105126;1259;69130;-53
2023/12/08 04:41:11;;;;;;;63.90;28.70;;;;;;;-1.08;100.00;100776.34;105119;1261;69174;-52
2023/12/08 04:43:39;;;;;;;54.20;27.30;;;;;;;-1.09;100.00;100773.40;105077;1262;73002;-52
2023/12/08 04:46:08;;;;;;;60.40;26.80;;;;;;;-1.09;100.00;100770.83;105064;1262;81587;-53
2023/12/08 04:48:36;;;;;;;66.50;29.60;;;;;;;-1.12;100.00;100771.13;105086;1259;73128;-53
2023/12/08 04:51:06;;;;;;;61.70;27.10;;;;;;;-1.13;100.00;100770.09;105058;1262;69133;-52
2023/12/08 04:53:34;;;;;;;65.60;28.50;;;;;;;-1.18;100.00;100773.61;105050;1262;69187;-55
2023/12/08 04:56:04;;;;;;;51.70;26.80;;;;;;;-1.19;100.00;100773.75;105103;1260;72795;-54
2023/12/08 04:58:32;;;;;;;53.40;26.50;;;;;;;-1.22;100.00;100770.96;105118;1260;81702;-54
2023/12/08 05:01:00;;;;;;;48.60;25.10;;;;;;;-1.24;100.00;100770.08;105088;1262;71400;-53
2023/12/08 05:03:29;;;;;;;56.00;24.80;;;;;;;-1.27;100.00;100774.48;105125;1260;69094;-52
2023/12/08 05:05:57;;;;;;;50.30;25.00;;;;;;;-1.30;100.00;100777.85;105137;1262;69221;-53
2023/12/08 05:08:26;;;;;;;49.70;24.40;;;;;;;-1.34;100.00;100786.55;105053;1259;72837;-52
2023/12/08 05:10:54;;;;;;;53.70;26.20;;;;;;;-1.39;100.00;100783.53;105034;1260;81762;-52
2023/12/08 05:13:22;;;;;;;48.20;26.40;;;;;;;-1.42;100.00;100785.71;105044;1259;70365;-52
2023/12/08 05:15:50;;;;;;;49.40;25.40;;;;;;;-1.43;100.00;100780.87;105046;1262;69964;-52
2023/12/08 05:18:18;;;;;;;53.40;26.70;;;;;;;-1.51;100.00;100778.16;105031;1262;69208;-50
2023/12/08 05:20:46;;;;;;;46.20;25.00;;;;;;;-1.58;100.00;100776.69;105085;1262;72576;-51
2023/12/08 05:23:15;;;;;;;55.10;25.70;;;;;;;-1.61;100.00;100779.52;105080;1262;81678;-50
2023/12/08 05:25:43;;;;;;;51.40;26.80;;;;;;;-1.66;100.00;100778.07;105042;1260;70427;-52
2023/12/08 05:28:11;;;;;;;54.60;27.50;;;;;;;-1.72;100.00;100773.66;105064;1258;69911;-50
2023/12/08 05:30:39;;;;;;;53.30;26.20;;;;;;;-1.79;100.00;100769.79;105126;1262;70005;-50
2023/12/08 05:33:08;;;;;;;52.00;25.80;;;;;;;-1.85;100.00;100769.50;105067;1259;73055;-50
2023/12/08 05:35:37;;;;;;;58.60;26.30;;;;;;;-1.91;100.00;100763.04;105129;1262;82352;-52
2023/12/08 05:38:05;;;;;;;58.40;27.80;;;;;;;-1.96;100.00;100752.32;105087;1262;72074;-51
2023/12/08 05:40:33;;;;;;;57.00;25.20;;;;;;;-2.01;100.00;100754.62;105058;1260;69984;-50
2023/12/08 05:43:01;;;;;;;52.40;25.70;;;;;;;-2.06;100.00;100756.91;105062;1261;70004;-49
2023/12/08 05:45:30;;;;;;;52.80;24.30;;;;;;;-2.08;100.00;100750.71;105126;1260;72021;-49
2023/12/08 05:47:58;;;;;;;57.20;27.00;;;;;;;-2.09;100.00;100746.23;105059;1262;82054;-51
2023/12/08 05:50:26;;;;;;;52.70;26.50;;;;;;;-2.13;100.00;100745.15;105036;1260;71878;-51
2023/12/08 05:52:54;;;;;;;57.50;29.40;;;;;;;-2.16;100.00;100747.30;105077;1259;69929;-50
2023/12/08 05:55:23;;;;;;;48.70;26.40;;;;;;;-2.22;100.00;100744.10;105047;1263;70009;-51
2023/12/08 05:57:51;;;;;;;56.80;30.80;;;;;;;-2.24;100.00;100745.59;105071;1262;72781;-51
2023/12/08 06:00:20;;;;;;;64.30;29.90;;;;;;;-2.31;100.00;100747.33;105139;1262;81410;-50
2023/12/08 06:02:48;;;;;;;59.60;29.90;;;;;;;-2.38;100.00;100744.63;105057;1261;71959;-50
2023/12/08 06:05:17;;;;;;;62.60;31.00;;;;;;;-2.44;100.00;100745.88;105052;1259;70078;-49
2023/12/08 06:07:45;;;;;;;60.40;31.00;;;;;;;-2.51;100.00;100748.61;105147;1262;70012;-49
2023/12/08 06:10:15;;;;;;;67.50;32.90;;;;;;;-2.56;100.00;100741.86;105075;1260;72910;-49
2023/12/08 06:12:43;;;;;;;73.10;33.60;;;;;;;-2.58;100.00;100739.23;105134;1262;81576;-49
2023/12/08 06:15:11;;;;;;;82.50;38.70;;;;;;;-2.60;100.00;100734.56;105099;1261;71477;-49
2023/12/08 06:17:40;;;;;;;90.10;40.00;;;;;;;-2.65;100.00;100733.95;105113;1262;70043;-50
2023/12/08 06:20:10;;;;;;;86.10;39.90;;;;;;;-2.69;100.00;100734.54;105059;1262;70029;-49
2023/12/08 06:22:38;;;;;;;85.70;35.40;;;;;;;-2.72;100.00;100734.30;105188;1259;72824;-50
2023/12/08 06:25:07;;;;;;;73.30;33.60;;;;;;;-2.74;100.00;100736.14;105113;1262;82636;-49
2023/12/08 06:27:36;;;;;;;87.90;37.70;;;;;;;-2.76;100.00;100733.36;105113;1260;73020;-49
2023/12/08 06:30:07;;;;;;;83.00;37.10;;;;;;;-2.80;100.00;100730.70;105134;1260;70025;-49
2023/12/08 06:32:35;;;;;;;72.60;33.40;;;;;;;-2.86;100.00;100728.69;105089;1260;69892;-49
2023/12/08 06:35:04;;;;;;;64.50;30.70;;;;;;;-2.89;100.00;100728.10;105074;1259;73559;-49
2023/12/08 06:37:33;;;;;;;60.40;28.70;;;;;;;-2.91;100.00;100727.89;105135;1262;82037;-48
2023/12/08 06:40:01;;;;;;;57.00;26.90;;;;;;;-2.92;100.00;100730.79;105062;1262;72110;-48
2023/12/08 06:42:29;;;;;;;58.40;27.70;;;;;;;-2.92;100.00;100725.30;105125;1260;69887;-50
2023/12/08 06:44:58;;;;;;;57.60;28.70;;;;;;;-2.94;100.00;100715.69;105126;1262;69971;-49
2023/12/08 06:47:27;;;;;;;55.30;27.90;;;;;;;-2.95;100.00;100709.86;105125;1259;72912;-49
2023/12/08 06:49:56;;;;;;;54.30;27.40;;;;;;;-2.97;100.00;100723.99;105052;1259;81714;-50
2023/12/08 06:52:24;;;;;;;60.40;30.20;;;;;;;-2.99;100.00;100729.60;105129;1260;72843;-51
2023/12/08 06:54:52;;;;;;;90.10;43.40;;;;;;;-2.95;100.00;100730.03;105061;1259;70015;-47
2023/12/08 06:57:21;;;;;;;68.30;33.10;;;;;;;-2.89;100.00;100718.02;105078;1259;69882;-49
2023/12/08 06:59:49;;;;;;;68.60;31.00;;;;;;;-2.83;100.00;100714.73;105081;1260;72939;-50
2023/12/08 07:02:17;;;;;;;70.00;33.20;;;;;;;-2.82;100.00;100714.92;105081;1262;82090;-51
2023/12/08 07:04:45;;;;;;;56.10;28.00;;;;;;;-2.80;100.00;100709.49;105138;1257;72876;-48
2023/12/08 07:07:15;;;;;;;51.10;25.20;;;;;;;-2.79;100.00;100706.28;105123;1257;70015;-47
2023/12/08 07:09:43;;;;;;;48.70;25.30;;;;;;;-2.77;100.00;100705.82;105235;1260;69944;-51
2023/12/08 07:12:11;;;;;;;43.30;23.60;;;;;;;-2.74;100.00;100706.89;105223;1257;73332;-49
2023/12/08 07:14:40;;;;;;;41.70;22.40;;;;;;;-2.75;100.00;100708.40;105122;1260;81467;-51
2023/12/08 07:17:08;;;;;;;42.40;23.60;;;;;;;-2.75;100.00;100708.08;105191;1256;72362;-48
2023/12/08 07:19:38;;;;;;;43.20;23.80;;;;;;;-2.68;100.00;100710.79;105283;1260;69949;-51
2023/12/08 07:22:06;;;;;;;45.80;24.90;;;;;;;-2.60;100.00;100717.30;105214;1260;69999;-51
2023/12/08 07:24:39;;;;;;;50.40;25.60;;;;;;;-2.52;100.00;100721.90;105167;1260;71336;-48
2023/12/08 07:27:08;;;;;;;54.00;27.00;;;;;;;-2.44;100.00;100722.26;105273;1260;81037;-51
2023/12/08 07:29:36;;;;;;;49.40;27.30;;;;;;;-2.37;100.00;100716.76;105155;1257;71643;-48
2023/12/08 07:32:06;;;;;;;55.70;27.00;;;;;;;-2.32;100.00;100711.39;105125;1261;69958;-52
2023/12/08 07:34:34;;;;;;;56.70;28.20;;;;;;;-2.27;100.00;100701.02;105216;1259;70003;-49
2023/12/08 07:37:03;;;;;;;60.00;26.80;;;;;;;-2.25;100.00;100709.46;105107;1262;74266;-49
2023/12/08 07:39:31;;;;;;;52.80;28.10;;;;;;;-2.23;100.00;100712.23;105107;1256;81467;-50
2023/12/08 07:41:59;;;;;;;58.10;30.50;;;;;;;-2.19;100.00;100719.14;105067;1260;72134;-48
2023/12/08 07:44:28;;;;;;;60.00;28.40;;;;;;;-2.18;100.00;100709.94;105293;1257;69964;-49
2023/12/08 07:46:57;;;;;;;59.10;28.40;;;;;;;-2.16;100.00;100706.89;105094;1257;70000;-51
2023/12/08 07:49:25;;;;;;;63.60;30.60;;;;;;;-2.13;100.00;100709.17;105192;1257;72877;-48
2023/12/08 07:51:53;;;;;;;57.00;27.90;;;;;;;-2.09;100.00;100714.39;105137;1257;82669;-49
2023/12/08 07:54:22;;;;;;;60.90;28.20;;;;;;;-2.08;100.00;100717.86;105131;1260;73067;-50
2023/12/08 07:56:50;;;;;;;55.90;28.30;;;;;;;-2.07;100.00;100721.12;105117;1259;70319;-48
2023/12/08 07:59:18;;;;;;;63.50;28.50;;;;;;;-2.06;100.00;100720.80;105120;1259;69971;-48
2023/12/08 08:01:46;;;;;;;57.00;28.40;;;;;;;-2.04;100.00;100728.36;105123;1261;71866;-49
2023/12/08 08:04:14;;;;;;;63.20;28.70;;;;;;;-2.01;100.00;100740.75;105151;1261;81333;-49
2023/12/08 08:06:42;;;;;;;57.60;28.00;;;;;;;-1.96;100.00;100744.09;105116;1256;72655;-51
2023/12/08 08:09:11;;;;;;;56.30;28.20;;;;;;;-1.93;100.00;100749.97;105185;1260;68561;-50
2023/12/08 08:11:39;;;;;;;56.00;28.30;;;;;;;-1.90;100.00;100757.05;105326;1256;69827;-50
2023/12/08 08:14:07;;;;;;;57.70;28.10;;;;;;;-1.87;100.00;100760.53;105162;1260;72828;-49
2023/12/08 08:16:36;;;;;;;64.10;28.70;;;;;;;-1.83;100.00;100760.27;105244;1260;81386;-49
2023/12/08 08:19:05;;;;;;;56.70;28.50;;;;;;;-1.77;100.00;100760.38;105218;1257;70713;-50
2023/12/08 08:21:33;;;;;;;53.00;27.90;;;;;;;-1.72;100.00;100760.82;105127;1257;69973;-49
2023/12/08 08:24:01;;;;;;;65.20;31.60;;;;;;;-1.66;100.00;100758.88;105303;1257;70112;-51
2023/12/08 08:26:30;;;;;;;56.20;28.10;;;;;;;-1.62;100.00;100761.36;105194;1256;74077;-49
2023/12/08 08:28:58;;;;;;;56.40;28.50;;;;;;;-1.60;100.00;100754.03;105154;1260;79968;-51
2023/12/08 08:31:26;;;;;;;53.20;26.60;;;;;;;-1.55;100.00;100753.58;105163;1257;72941;-49
2023/12/08 08:33:55;;;;;;;57.10;25.90;;;;;;;-1.51;100.00;100750.75;105066;1257;69874;-50
2023/12/08 08:36:25;;;;;;;52.00;25.70;;;;;;;-1.50;100.00;100744.44;105198;1257;69982;-49
2023/12/08 08:38:53;;;;;;;;;;;;;;;-1.47;100.00;100748.42;105334;1256;73036;-49
2023/12/08 08:41:22;;;;;;;52.90;24.20;;;;;;;-1.44;100.00;100750.70;105230;1260;81438;-49
2023/12/08 08:43:50;;;;;;;53.30;26.70;;;;;;;-1.41;100.00;100749.39;105110;1260;71832;-50
2023/12/08 08:46:18;;;;;;;55.50;26.80;;;;;;;-1.36;100.00;100749.98;105108;1257;69809;-50
2023/12/08 08:48:47;;;;;;;52.90;25.90;;;;;;;-1.34;100.00;100740.77;105066;1256;69993;-50
2023/12/08 08:51:16;;;;;;;51.90;26.90;;;;;;;-1.32;100.00;100731.02;105217;1258;72873;-49
2023/12/08 08:53:44;;;;;;;50.80;26.90;;;;;;;-1.31;100.00;100728.29;105287;1258;81990;-50
2023/12/08 08:56:13;;;;;;;50.70;25.70;;;;;;;-1.31;100.00;100721.27;105190;1260;72090;-50
2023/12/08 08:58:41;;;;;;;49.00;24.60;;;;;;;-1.31;100.00;100716.98;105201;1259;69994;-49
2023/12/08 09:01:10;;;;;;;55.40;26.70;;;;;;;-1.31;100.00;100715.27;105183;1256;69922;-50
2023/12/08 09:03:38;;;;;;;46.80;24.10;;;;;;;-1.30;100.00;100712.35;105306;1261;71994;-50
2023/12/08 09:06:06;;;;;;;51.30;25.80;;;;;;;-1.30;100.00;100712.01;105257;1261;81614;-49
2023/12/08 09:08:35;;;;;;;50.10;24.60;;;;;;;-1.31;100.00;100713.37;105144;1260;71838;-52
2023/12/08 09:11:05;;;;;;;49.20;26.40;;;;;;;-1.31;100.00;100715.77;105266;1258;69931;-49
2023/12/08 09:13:33;;;;;;;50.50;25.20;;;;;;;-1.31;100.00;100714.08;105207;1257;70075;-49
2023/12/08 09:16:01;;;;;;;49.40;25.00;;;;;;;-1.29;100.00;100717.19;105249;1257;72845;-51
2023/12/08 09:18:30;;;;;;;47.20;25.10;;;;;;;-1.27;100.00;100728.55;105288;1260;82964;-50
2023/12/08 09:20:59;;;;;;;53.00;25.30;;;;;;;-1.25;100.00;100725.48;105206;1257;71958;-52
2023/12/08 09:23:27;;;;;;;56.00;26.20;;;;;;;-1.23;100.00;100717.96;105252;1257;69939;-51
2023/12/08 09:25:55;;;;;;;52.40;25.90;;;;;;;-1.22;100.00;100712.85;105123;1257;69823;-52
2023/12/08 09:28:23;;;;;;;50.20;24.80;;;;;;;-1.22;100.00;100713.70;105144;1256;73014;-53
2023/12/08 09:30:52;;;;;;;54.10;26.80;;;;;;;-1.24;100.00;100710.75;105097;1260;81544;-52
2023/12/08 09:33:20;;;;;;;53.90;26.10;;;;;;;-1.22;100.00;100701.52;105109;1257;70668;-57
2023/12/08 09:35:52;;;;;;;49.80;26.00;;;;;;;-1.22;100.00;100702.56;105175;1257;69983;-53
2023/12/08 09:38:21;;;;;;;50.90;26.00;;;;;;;-1.20;100.00;100696.23;105078;1260;69150;-55
2023/12/08 09:41:04;;;;;;;58.40;25.20;;;;;;;-1.17;100.00;100692.02;105173;1256;73021;-53
2023/12/08 09:43:57;;;;;;;50.30;25.90;;;;;;;-1.14;100.00;100688.79;105233;1260;82015;-56
2023/12/08 09:46:26;;;;;;;60.60;26.10;;;;;;;-1.10;100.00;100680.79;105349;1256;72388;-53
2023/12/08 09:48:58;;;;;;;59.10;27.00;;;;;;;-1.07;100.00;100674.83;105328;1257;69268;-53
2023/12/08 09:51:28;;;;;;;58.20;26.40;;;;;;;-1.04;100.00;100670.59;105285;1257;69927;-58
2023/12/08 09:53:57;;;;;;;59.20;28.80;;;;;;;-1.00;100.00;100674.26;105223;1257;73015;-55
2023/12/08 09:56:26;;;;;;;63.20;28.40;;;;;;;-0.97;100.00;100669.66;105140;1256;80657;-54
2023/12/08 09:58:54;;;;;;;65.20;29.40;;;;;;;-0.93;100.00;100668.16;105150;1256;72255;-55
2023/12/08 10:01:22;;;;;;;55.50;27.30;;;;;;;-0.89;100.00;100668.73;105076;1257;69093;-55
2023/12/08 10:03:50;;;;;;;77.00;36.60;;;;;;;-0.87;100.00;100661.73;105119;1260;69253;-54
2023/12/08 10:06:20;;;;;;;63.10;28.80;;;;;;;-0.84;100.00;100652.66;105114;1257;72566;-56
2023/12/08 10:08:48;;;;;;;82.70;36.40;;;;;;;-0.84;100.00;100645.82;105119;1261;81720;-56
2023/12/08 10:11:17;;;;;;;70.30;30.80;;;;;;;-0.82;100.00;100646.02;105081;1262;70129;-56
2023/12/08 10:13:45;;;;;;;67.50;31.60;;;;;;;-0.80;100.00;100637.29;105060;1260;69210;-56
2023/12/08 10:16:13;;;;;;;67.40;31.40;;;;;;;-0.78;100.00;100631.83;105162;1261;69145;-55
2023/12/08 10:18:41;;;;;;;72.50;34.10;;;;;;;-0.77;100.00;100620.02;105099;1257;73350;-56
2023/12/08 10:21:16;;;;;;;65.70;31.20;;;;;;;-0.76;100.00;100612.64;105079;1260;81899;-57
2023/12/08 10:23:46;;;;;;;75.40;32.80;;;;;;;-0.74;100.00;100604.95;105147;1257;72429;-57
2023/12/08 10:26:16;;;;;;;85.50;39.80;;;;;;;-0.72;100.00;100603.23;105092;1257;69186;-58
2023/12/08 10:28:44;;;;;;;80.00;34.50;;;;;;;-0.69;100.00;100601.39;105113;1257;69173;-58
2023/12/08 10:31:13;;;;;;;83.10;36.50;;;;;;;-0.67;100.00;100594.90;105066;1256;72229;-57
2023/12/08 10:33:41;;;;;;;121.70;49.70;;;;;;;-0.66;100.00;100595.60;105170;1257;80413;-55
2023/12/08 10:36:10;;;;;;;108.10;45.80;;;;;;;-0.65;100.00;100597.66;105120;1257;72205;-55
2023/12/08 10:38:39;;;;;;;131.10;51.40;;;;;;;-0.62;100.00;100595.63;105097;1257;69125;-56
2023/12/08 10:41:11;;;;;;;94.80;36.60;;;;;;;-0.60;100.00;100583.65;105169;1260;69266;-54
2023/12/08 10:43:40;;;;;;;119.80;50.00;;;;;;;-0.58;100.00;100583.50;105139;1259;73217;-56
2023/12/08 10:46:09;;;;;;;93.30;40.10;;;;;;;-0.55;100.00;100574.44;105188;1261;81351;-54
2023/12/08 10:48:38;;;;;;;110.30;45.30;;;;;;;-0.52;100.00;100574.12;105131;1261;70102;-55
2023/12/08 10:51:13;;;;;;;93.80;37.60;;;;;;;-0.49;100.00;100574.50;105137;1260;69161;-55
2023/12/08 10:53:44;;;;;;;118.30;48.10;;;;;;;-0.47;100.00;100578.13;105118;1260;69228;-53
2023/12/08 10:56:15;;;;;;;104.30;40.10;;;;;;;-0.45;100.00;100577.98;105047;1256;110725;-55
2023/12/08 10:58:44;;;;;;;102.90;39.80;;;;;;;-0.43;100.00;100577.83;105140;1261;81485;-56
2023/12/08 11:01:14;;;;;;;105.60;43.00;;;;;;;-0.43;100.00;100576.28;105132;1256;71708;-55